Macaé Benedito Lacerda Airport

SBME · Rio de Janeiro, 巴西

罗盘
风向 的 风向 060° Macaé Airport 6/24
风: 11 kt, 4 beaufort

10 kt

5 kt
改变
0 ft 1.000 2.000 3.000 4.000 5.000
CAVOK
METAR SBME 180000Z 06011KT CAVOK 26/22 Q1012

METAR Macaé Airport - SBME/MEA

Macaé Airport是,巴西中的中型机场。 该机场位于纬度-22,34300和经度-41,76600。 该机场有一条跑道: 6/24. 本场的ICAO机场代码为SBME。 该机场的IATA代码为MEA。 机场在Curitiba FIR中。

该航空气象观测是针对Macaé Airport在2024年4月17日 21:00, 当地时间进行的。

机场观察

风向为060°,速度为11 kt。

天气为CAVOK。这意味着在5.000 ft或MSA(最低安全高度)以下(以较高者为准)以下没有云。这也意味着没有观测到积雨云或高耸的积云,可见度为10 km 或者更多或更高。此外,不会有雾,降雨或其他重要天气。

温度和风寒是26 °C。 露点为22 °C,相对湿度为79%。 海平面上的气压为1012 hPa (QNH)。

白天

今天,太阳从06:01升起,在17:31降落。 这适用于Macaé Airport,世界夏令时可能有所不同。 当地时间与世界标准时间之间的时差为-3 小时。 夏令时目前正在进行中。

公司介绍

我们没有关于这个机场的公司信息。

体会

到Vliegles.nl去找飞行课程,跳伞和其他飞行体验。 浏览页面,了解Macaé Airport附近所有可用的活动。 你也可以使用搜索功能来寻找你所在地附近的特定飞行课程、跳伞或其他飞行体验。

跑道

Id 标题 侧风 逆风 侧风 %
6/24 033°-213° 5 kt 10 kt 45 %

逆风成分最大的方向会被突出显示,并用于横风计算。 这并不一定意味着这个方向在使用。

温度 & 天气

温度 26 °C
露点 22 °C
相对湿度 79%
Kp-index 1 (0-9)

白天

日出
06:01 (8:17)
中午
11:46
日落
17:31

小工具

你想在你的网站上有一个关于Macaé Airport的当前航空天气(METAR)的小部件吗?

显示HTML代码
报告变更